Data for 10/05/2014

Time Sea-Level Adjusted Pressure Absolute Pressure Temperature Relative Humidity Dew Point   
(mb) (inHg) (mb) (inHg) (C) (F) (%) (C) (F)
00:05 1021 30.15 850 25.1 13.8 56.9 46 2.4 36.4
00:10 1021 30.15 850 25.1 14 57.1 46 2.5 36.5
00:15 1021 30.15 850 25.1 14.1 57.3 45 2.4 36.3
00:20 1021 30.15 850 25.1 14.2 57.6 45 2.4 36.3
00:25 1021 30.15 850 25.1 14.3 57.7 44 2.4 36.3
00:30 1021 30.15 850 25.1 14.3 57.8 44 2.4 36.3
00:35 1021 30.15 850 25.1 14.3 57.7 45 2.5 36.6
00:40 1021 30.15 850 25.1 14.3 57.7 45 2.7 36.8
00:45 1021 30.15 850 25.1 14.2 57.6 46 2.8 37.1
00:50 1021 30.15 850 25.1 14.1 57.4 46 2.8 37.1
00:55 1021 30.15 850 25.1 14.1 57.3 46 2.8 37.1
01:00 1021 30.15 850 25.1 14 57.2 46 2.8 37
01:05 1021 30.15 850 25.1 14 57.1 47 2.9 37.3
01:10 1021 30.15 850 25.1 13.9 57 49 3.3 37.9
01:15 1021 30.15 850 25.1 13.7 56.6 49 3.1 37.5
01:20 1021 30.15 850 25.1 13.5 56.3 49 3.1 37.6
01:25 1021 30.15 850 25.1 13.4 56.2 49 3.1 37.5
01:30 1021 30.15 850 25.1 13.4 56 50 3.2 37.7
01:35 1021 30.15 850 25.1 13.3 56 50 3.1 37.7
01:40 1021 30.15 850 25.1 13.3 56 50 3.2 37.7
01:45 1021 30.15 850 25.1 13.3 55.9 50 3.1 37.5
01:50 1021 30.15 850 25.1 13.2 55.8 50 3.1 37.6
01:55 1021 30.15 851 25.13 13.1 55.6 52 3.5 38.3
02:00 1021 30.15 851 25.13 12.9 55.1 53 3.5 38.3
02:05 1021 30.15 850 25.1 12.6 54.7 53 3.2 37.8
02:10 1021 30.15 850 25.1 12.6 54.6 53 3.3 37.9
02:15 1021 30.15 850 25.1 12.4 54.4 54 3.4 38.1
02:20 1021 30.15 850 25.1 12.3 54.2 53 3.1 37.6
02:25 1021 30.15 850 25.1 12.5 54.5 51 2.6 36.7
02:30 1021 30.15 850 25.1 13 55.4 50 2.9 37.2
02:35 1021 30.15 850 25.1 13.1 55.6 50 3 37.4
02:40 1021 30.15 851 25.13 13.2 55.7 50 3 37.5
02:45 1021 30.15 851 25.13 13.2 55.7 50 2.9 37.2
02:50 1021 30.15 851 25.13 13.3 55.9 50 3.1 37.6
02:55 1021 30.15 851 25.13 13.2 55.8 51 3.3 37.9
03:00 1021 30.15 851 25.13 13.1 55.6 51 3.3 38
03:05 1021 30.15 850 25.1 13 55.4 53 3.6 38.4
03:10 1021 30.15 850 25.1 12.7 54.9 54 3.7 38.7
03:15 1021 30.15 850 25.1 12.6 54.6 54 3.7 38.6
03:20 1021 30.15 850 25.1 12.6 54.6 55 3.7 38.7
03:25 1021 30.15 850 25.1 12.7 54.8 53 3.5 38.3
03:30 1021 30.15 850 25.1 12.9 55.2 53 3.6 38.4
03:35 1021 30.15 851 25.13 13 55.5 53 3.6 38.5
03:40 1021 30.15 851 25.13 13.1 55.5 53 3.8 38.8
03:45 1021 30.15 851 25.13 13 55.4 53 3.7 38.7
03:50 1021 30.15 851 25.13 12.9 55.2 54 3.9 38.9
03:55 1021 30.15 851 25.13 12.9 55.2 53 3.5 38.4
04:00 1021 30.15 851 25.13 13.1 55.6 52 3.6 38.5
04:05 1022 30.18 851 25.13 13.1 55.6 53 3.8 38.9
04:10 1022 30.18 851 25.13 13 55.4 53 3.8 38.8
04:15 1022 30.18 851 25.13 13 55.4 53 3.7 38.6
04:20 1022 30.18 851 25.13 13 55.5 53 3.6 38.6
04:25 1022 30.18 851 25.13 13 55.5 53 3.8 38.8
04:30 1022 30.18 851 25.13 12.9 55.2 54 3.8 38.8
04:35 1022 30.18 851 25.13 12.8 55.1 54 3.7 38.7
04:40 1022 30.18 851 25.13 12.8 55.1 54 3.7 38.7
04:45 1022 30.18 851 25.13 12.8 55.1 53 3.5 38.2
04:50 1022 30.18 851 25.13 13 55.4 52 3.5 38.3
04:55 1022 30.18 851 25.13 13 55.4 53 3.6 38.5
05:00 1022 30.18 851 25.13 13 55.3 52 3.5 38.4
05:05 1022 30.18 851 25.13 12.9 55.3 53 3.6 38.4
05:10 1022 30.18 851 25.13 12.8 55.1 53 3.7 38.6
05:15 1022 30.18 851 25.13 12.7 54.8 54 3.6 38.5
05:20 1022 30.18 851 25.13 12.7 54.8 54 3.7 38.7
05:25 1022 30.18 851 25.13 12.5 54.5 55 3.6 38.5
05:30 1022 30.18 851 25.13 12.4 54.4 55 3.6 38.5
05:35 1022 30.18 851 25.13 12.5 54.4 55 3.7 38.6
05:40 1022 30.18 851 25.13 12.4 54.3 55 3.7 38.6
05:45 1022 30.18 851 25.13 12.3 54.2 55 3.5 38.3
05:50 1022 30.18 851 25.13 12.5 54.4 54 3.6 38.5
05:55 1022 30.18 851 25.13 12.5 54.5 55 3.7 38.6
06:00 1022 30.18 851 25.13 12.5 54.5 54 3.6 38.5
06:05 1022 30.18 851 25.13 12.5 54.5 55 3.7 38.6
06:10 1022 30.18 851 25.13 12.4 54.3 55 3.6 38.5
06:15 1022 30.18 851 25.13 12.4 54.2 55 3.7 38.6
06:20 1022 30.18 851 25.13 12.2 53.9 56 3.7 38.7
06:25 1022 30.18 851 25.13 12 53.5 56 3.6 38.5
06:30 1022 30.18 851 25.13 12 53.5 56 3.5 38.3
06:35 1022 30.18 851 25.13 11.9 53.4 56 3.4 38.2
06:40 1022 30.18 851 25.13 11.9 53.4 57 3.6 38.6
06:45 1022 30.18 851 25.13 11.7 53.1 58 3.8 38.8
06:50 1022 30.18 851 25.13 11.6 52.9 58 3.7 38.7
06:55 1022 30.18 851 25.13 11.6 52.9 57 3.5 38.3
07:00 1022 30.18 851 25.13 11.7 53 58 3.7 38.7
07:05 1022 30.18 851 25.13 11.7 53 58 3.8 38.9
07:10 1022 30.18 851 25.13 11.6 52.9 59 3.9 38.9
07:15 1022 30.18 851 25.13 11.6 52.9 58 3.7 38.7
07:20 1022 30.18 851 25.13 11.5 52.6 60 3.9 39.1
07:25 1022 30.18 851 25.13 11.5 52.6 57 3.4 38.1
07:30 1022 30.18 851 25.13 12 53.5 56 3.5 38.2
07:35 1022 30.18 851 25.13 12.2 54 55 3.4 38.1
07:40 1022 30.18 851 25.13 12.4 54.3 54 3.5 38.3
07:45 1022 30.18 851 25.13 12.3 54.1 56 3.9 39
07:50 1022 30.18 852 25.16 12.1 53.7 57 3.9 39.1
07:55 1022 30.18 851 25.13 11.9 53.4 57 3.7 38.6
08:00 1022 30.18 851 25.13 12 53.6 56 3.5 38.3
08:05 1022 30.18 852 25.16 12.7 54.9 52 3.3 37.9
08:10 1022 30.18 852 25.16 13.5 56.4 51 3.5 38.4
08:15 1022 30.18 852 25.16 14.4 57.8 49 3.9 39
08:20 1023 30.21 852 25.16 14.3 57.7 50 4.1 39.4
08:25 1023 30.21 852 25.16 13.9 57 52 4.2 39.6
08:30 1023 30.21 852 25.16 14.1 57.4 51 4.2 39.6
08:35 1023 30.21 852 25.16 14.4 57.9 49 3.9 39.1
08:40 1023 30.21 852 25.16 14.9 58.8 49 4.3 39.7
08:45 1023 30.21 852 25.16 15.3 59.6 48 4.6 40.3
08:50 1023 30.21 852 25.16 15.1 59.2 50 4.7 40.5
08:55 1023 30.21 852 25.16 14.8 58.6 51 4.9 40.8
09:00 1023 30.21 852 25.16 14.2 57.6 53 4.8 40.7
09:05 1023 30.21 852 25.16 14.5 58 52 4.7 40.4
09:10 1023 30.21 852 25.16 14.8 58.6 50 4.6 40.3
09:15 1023 30.21 852 25.16 15 59 49 4.5 40.2
09:20 1023 30.21 852 25.16 15.2 59.4 49 4.6 40.3
09:25 1023 30.21 852 25.16 15.5 59.8 46 4 39.2
09:30 1023 30.21 852 25.16 15.6 60.1 47 4.3 39.8
09:35 1023 30.21 852 25.16 15.2 59.4 47 4.1 39.5
09:40 1023 30.21 852 25.16 15.2 59.3 48 4.4 39.8
09:45 1023 30.21 852 25.16 15.2 59.3 48 4.3 39.7
09:50 1023 30.21 852 25.16 15.9 60.6 45 4.1 39.4
09:55 1023 30.21 852 25.16 16.3 61.3 46 4.8 40.6
10:00 1023 30.21 852 25.16 16.2 61.2 44 4.2 39.5
10:05 1023 30.21 852 25.16 16.9 62.5 43 4.3 39.8
10:10 1023 30.21 852 25.16 16.8 62.2 45 4.9 40.8
10:15 1023 30.21 852 25.16 16.8 62.2 43 4.4 39.9
10:20 1023 30.21 852 25.16 17.1 62.7 44 4.7 40.5
10:25 1023 30.21 852 25.16 17.5 63.5 41 4.3 39.8
10:30 1023 30.21 852 25.16 17.8 64 41 4.4 39.9
10:35 1023 30.21 852 25.16 17.7 63.9 39 3.9 39
10:40 1023 30.21 852 25.16 17.7 63.9 40 4 39.2
10:45 1023 30.21 852 25.16 17.7 63.9 39 3.6 38.5
10:50 1022 30.18 852 25.16 17.3 63.1 39 3.5 38.3
10:55 1022 30.18 852 25.16 18 64.4 38 3.5 38.3
11:00 1022 30.18 852 25.16 18.1 64.5 38 3.6 38.5
11:05 1022 30.18 852 25.16 17.7 63.8 37 3 37.4
11:10 1022 30.18 852 25.16 17.4 63.3 40 3.9 39
11:15 1022 30.18 852 25.16 17.4 63.4 41 4.3 39.8
11:20 1022 30.18 851 25.13 17.5 63.5 39 3.7 38.6
11:25 1022 30.18 851 25.13 18 64.3 36 2.6 36.8
11:30 1022 30.18 851 25.13 18.5 65.2 34 2.5 36.5
11:35 1022 30.18 851 25.13 18.9 65.9 33 2.3 36.2
11:40 1022 30.18 851 25.13 18.6 65.4 33 2.2 36
11:45 1022 30.18 851 25.13 18.2 64.8 35 2.7 36.9
11:50 1022 30.18 851 25.13 18 64.4 34 2 35.6
11:55 1022 30.18 851 25.13 18.5 65.4 33 2.3 36.1
12:00 1022 30.18 851 25.13 18 64.3 36 2.6 36.8
12:05 1022 30.18 851 25.13 17.6 63.6 36 2.5 36.4
12:10 1022 30.18 851 25.13 18.3 65 34 2.4 36.3
12:15 1022 30.18 851 25.13 18.8 65.9 33 2.4 36.3
12:20 1022 30.18 851 25.13 19 66.2 32 2.2 35.9
12:25 1022 30.18 851 25.13 19.3 66.8 32 2.4 36.4
12:30 1022 30.18 851 25.13 19.8 67.6 30 2 35.6
12:35 1021 30.15 851 25.13 19.9 67.9 30 2.2 36
12:40 1021 30.15 851 25.13 19.8 67.7 31 2.3 36.1
12:45 1021 30.15 851 25.13 19.7 67.5 30 1.7 35.1
12:50 1021 30.15 850 25.1 19.6 67.3 30 1.8 35.3
12:55 1021 30.15 850 25.1 19.8 67.6 28 1 33.9
13:00 1021 30.15 850 25.1 20.1 68.1 28 1.4 34.5
13:05 1021 30.15 850 25.1 20.4 68.6 29 1.7 35.1
13:10 1021 30.15 850 25.1 20 68 29 1.5 34.7
13:15 1021 30.15 850 25.1 20 68 29 1.4 34.5
13:20 1021 30.15 850 25.1 20 68 29 1.8 35.2
13:25 1021 30.15 850 25.1 20 68.1 30 2.1 35.8
13:30 1021 30.15 850 25.1 20.2 68.3 30 2.1 35.8
13:35 1021 30.15 850 25.1 20.6 69 27 1.3 34.4
13:40 1021 30.15 850 25.1 20.4 68.7 29 1.7 35.1
13:45 1021 30.15 850 25.1 20.3 68.5 28 1.3 34.4
13:50 1021 30.15 850 25.1 20.5 68.9 28 1.6 34.8
13:55 1021 30.15 850 25.1 20.4 68.7 29 1.8 35.3
14:00 1021 30.15 850 25.1 20.1 68.2 28 1.3 34.4
14:05 1021 30.15 850 25.1 20.7 69.2 27 1.3 34.3
14:10 1021 30.15 850 25.1 20.6 69 27 1.2 34.1
14:15 1020 30.12 850 25.1 20.9 69.6 26 1 33.8
14:20 1020 30.12 850 25.1 21 69.8 26 1.1 34.1
14:25 1020 30.12 850 25.1 21.1 70 27 1.3 34.4
14:30 1020 30.12 850 25.1 20.7 69.3 27 1.2 34.1
14:35 1020 30.12 850 25.1 21.1 70 27 1.6 34.9
14:40 1020 30.12 849 25.07 21 69.8 26 0.9 33.6
14:45 1020 30.12 849 25.07 21 69.7 25 0.3 32.6
14:50 1020 30.12 849 25.07 20.7 69.3 24 -0.3 31.4
14:55 1020 30.12 849 25.07 20.8 69.5 25 0 32.1
15:00 1020 30.12 849 25.07 21 69.8 25 0.2 32.4
15:05 1020 30.12 849 25.07 21 69.9 24 -0.1 31.9
15:10 1020 30.12 849 25.07 20.5 68.9 25 0.2 32.4
15:15 1020 30.12 849 25.07 20.7 69.3 26 0.5 32.8
15:20 1020 30.12 849 25.07 20.9 69.6 25 0.5 32.8
15:25 1020 30.12 849 25.07 20.9 69.6 25 0.3 32.5
15:30 1020 30.12 849 25.07 20.9 69.6 25 0.2 32.3
15:35 1020 30.12 849 25.07 20.7 69.3 25 0.2 32.3
15:40 1020 30.12 849 25.07 20.8 69.4 25 0.3 32.5
15:45 1020 30.12 849 25.07 20.8 69.5 25 0.4 32.8
15:50 1020 30.12 849 25.07 20.8 69.5 25 0.1 32.2
15:55 1019 30.09 849 25.07 20.6 69.1 26 0.6 33.1
16:00 1019 30.09 849 25.07 20.3 68.6 26 0.5 32.8
16:05 1019 30.09 849 25.07 20.1 68.2 27 0.7 33.3
16:10 1019 30.09 849 25.07 20.4 68.8 27 0.9 33.7
16:15 1019 30.09 849 25.07 20.6 69 28 1.4 34.5
16:20 1019 30.09 848 25.04 20.5 68.9 26 0.8 33.4
16:25 1019 30.09 848 25.04 20.5 68.9 26 0.7 33.3
16:30 1019 30.09 848 25.04 20.3 68.6 27 1 33.7
16:35 1019 30.09 848 25.04 20.1 68.2 27 0.5 32.9
16:40 1019 30.09 848 25.04 19.9 67.8 28 0.8 33.5
16:45 1019 30.09 848 25.04 19.8 67.6 28 1 33.7
16:50 1019 30.09 848 25.04 19.7 67.4 28 1 33.7
16:55 1019 30.09 848 25.04 19.5 67 29 1.2 34.1
17:00 1019 30.09 848 25.04 19.2 66.5 29 1.1 34
17:05 1019 30.09 848 25.04 19.1 66.4 30 1.4 34.5
17:10 1019 30.09 848 25.04 19.1 66.4 30 1.4 34.5
17:15 1019 30.09 848 25.04 19.1 66.4 30 1.1 33.9
17:20 1019 30.09 848 25.04 19.3 66.7 29 1.1 34
17:25 1019 30.09 848 25.04 19.2 66.6 30 1.4 34.5
17:30 1019 30.09 848 25.04 19 66.2 31 1.6 34.8
17:35 1019 30.09 848 25.04 18.6 65.5 33 2.2 35.9
17:40 1019 30.09 848 25.04 18.2 64.7 34 2.2 36
17:45 1019 30.09 848 25.04 17.9 64.3 35 2.4 36.2
17:50 1019 30.09 848 25.04 17.8 64 35 2.4 36.3
17:55 1019 30.09 848 25.04 17.8 64.1 34 2 35.6
18:00 1019 30.09 848 25.04 17.8 64 34 1.8 35.2
18:05 1019 30.09 848 25.04 17.6 63.8 34 1.6 35
18:10 1019 30.09 848 25.04 17.5 63.4 34 1.8 35.2
18:15 1019 30.09 848 25.04 17.2 62.9 35 1.7 35
18:20 1019 30.09 848 25.04 17 62.6 35 1.4 34.5
18:25 1019 30.09 848 25.04 16.9 62.5 34 1.3 34.3
18:30 1019 30.09 848 25.04 16.9 62.4 35 1.6 34.9
18:35 1019 30.09 848 25.04 16.9 62.4 35 1.2 34.2
18:40 1019 30.09 848 25.04 16.8 62.2 36 1.9 35.4
18:45 1019 30.09 848 25.04 16.5 61.7 39 2.7 36.9
18:50 1019 30.09 848 25.04 15.7 60.2 43 3.4 38.1
18:55 1019 30.09 849 25.07 14.3 57.7 45 2.6 36.6
19:00 1019 30.09 849 25.07 13.8 56.8 46 2.6 36.7
19:05 1019 30.09 849 25.07 13.8 56.8 45 2.1 35.7
19:10 1019 30.09 849 25.07 14.2 57.6 43 2 35.6
19:15 1019 30.09 849 25.07 14.4 58 43 2 35.7
19:20 1019 30.09 849 25.07 14.4 57.9 45 2.5 36.6
19:25 1019 30.09 849 25.07 14 57.2 46 2.7 36.9
19:30 1019 30.09 849 25.07 13.5 56.3 48 2.9 37.2
19:35 1019 30.09 849 25.07 13 55.5 50 2.8 37
19:40 1020 30.12 849 25.07 12.9 55.2 49 2.5 36.5
19:45 1020 30.12 849 25.07 12.9 55.2 49 2.7 36.8
19:50 1020 30.12 849 25.07 12.8 55.1 50 2.8 37
19:55 1020 30.12 849 25.07 12.7 54.9 49 2.3 36.2
20:00 1020 30.12 849 25.07 12.8 55 49 2.5 36.6
20:05 1020 30.12 849 25.07 12.7 54.9 50 2.6 36.7
20:10 1020 30.12 849 25.07 12.5 54.5 49 2.3 36.1
20:15 1020 30.12 849 25.07 12.4 54.2 51 2.5 36.6
20:20 1020 30.12 849 25.07 12 53.6 52 2.5 36.5
20:25 1020 30.12 849 25.07 11.8 53.3 52 2.3 36.1
20:30 1020 30.12 849 25.07 11.8 53.3 52 2.3 36.1
20:35 1020 30.12 849 25.07 11.7 53.1 51 2 35.6
20:40 1020 30.12 849 25.07 11.8 53.3 51 2.2 35.9
20:45 1020 30.12 849 25.07 11.8 53.2 51 2 35.7
20:50 1020 30.12 849 25.07 11.7 53 52 2.3 36.2
20:55 1020 30.12 849 25.07 11.6 52.8 52 2 35.6
21:00 1020 30.12 849 25.07 11.7 53.1 51 1.9 35.4
21:05 1020 30.12 849 25.07 12 53.5 49 1.6 34.8
21:10 1020 30.12 849 25.07 12.2 53.9 49 1.8 35.3
21:15 1020 30.12 849 25.07 12.2 54 48 1.6 34.9
21:20 1020 30.12 849 25.07 12.1 53.9 49 1.9 35.5
21:25 1020 30.12 849 25.07 12 53.5 49 1.6 34.8
21:30 1020 30.12 849 25.07 12.2 53.9 49 1.8 35.3
21:35 1020 30.12 849 25.07 11.9 53.5 48 1.4 34.5
21:40 1020 30.12 849 25.07 12.3 54.2 47 1.3 34.4
21:45 1020 30.12 849 25.07 12.5 54.4 48 1.7 35.1
21:50 1020 30.12 849 25.07 12.3 54.1 47 1.4 34.5
21:55 1020 30.12 849 25.07 12.5 54.4 48 1.7 35.1
22:00 1020 30.12 849 25.07 11.9 53.5 50 2 35.6
22:05 1020 30.12 849 25.07 11.5 52.6 51 1.8 35.3
22:10 1020 30.12 849 25.07 11.5 52.6 51 1.6 34.9
22:15 1020 30.12 849 25.07 11.6 52.8 51 1.7 35.1
22:20 1020 30.12 849 25.07 11.4 52.4 50 1.4 34.6
22:25 1019 30.09 849 25.07 11.5 52.8 49 1.3 34.4
22:30 1019 30.09 849 25.07 11.6 52.8 50 1.5 34.8
22:35 1019 30.09 849 25.07 11.4 52.5 50 1.2 34.2
22:40 1019 30.09 849 25.07 11.7 53 47 0.8 33.5
22:45 1019 30.09 849 25.07 12 53.6 47 1.2 34.2
22:50 1019 30.09 849 25.07 11.8 53.2 48 1.3 34.4
22:55 1019 30.09 849 25.07 11.7 53.1 48 1.2 34.2
23:00 1019 30.09 849 25.07 11.8 53.2 48 1.1 33.9
23:05 1019 30.09 848 25.04 11.8 53.3 47 1 33.8
23:10 1019 30.09 848 25.04 11.9 53.3 47 1 33.8
23:15 1019 30.09 848 25.04 12 53.5 46 0.8 33.4
23:20 1019 30.09 848 25.04 12.2 54 45 0.7 33.2
23:25 1019 30.09 848 25.04 12.4 54.3 44 0.6 33.1
23:30 1019 30.09 848 25.04 12.5 54.5 44 0.7 33.2
23:35 1019 30.09 848 25.04 12.5 54.5 44 0.7 33.3
23:40 1019 30.09 848 25.04 12.3 54.2 44 0.5 32.9
23:45 1019 30.09 848 25.04 12.4 54.3 45 0.7 33.3
23:50 1019 30.09 848 25.04 12.2 54 45 0.7 33.2
23:55 1019 30.09 848 25.04 12 53.6 45 0.7 33.2
24:00 1019 30.09 848 25.04 12.2 53.9 43 0.1 32.2